createdAt,value
2022-08-08T03:33:54.796Z,16.17
2022-08-08T03:34:30.561Z,15.87
2022-08-08T03:35:30.192Z,16.02
2022-08-08T03:36:30.282Z,15.98
2022-08-08T03:38:52.613Z,16.00
2022-08-08T03:38:56.528Z,16.09
2022-08-08T03:44:29.438Z,16.46
2022-08-08T03:46:05.706Z,16.43
2022-08-08T03:46:32.615Z,16.16
2022-08-08T03:47:45.136Z,16.31
2022-08-08T03:49:57.582Z,16.24
2022-08-08T03:50:30.402Z,16.09
2022-08-08T03:51:40.441Z,16.17
2022-08-08T03:52:30.760Z,16.19
2022-08-08T03:53:42.246Z,16.06
2022-08-08T03:54:51.753Z,16.09
2022-08-08T03:55:56.756Z,16.01
2022-08-08T03:56:31.888Z,15.88
2022-08-08T03:58:33.405Z,15.97
2022-08-08T03:58:37.206Z,15.85
2022-08-08T03:59:30.306Z,15.94
2022-08-08T04:00:30.463Z,15.87
2022-08-08T04:01:35.546Z,15.90
2022-08-08T04:02:47.421Z,15.92
2022-08-08T04:03:57.505Z,15.94
2022-08-08T04:04:30.589Z,15.97
2022-08-08T04:05:29.318Z,16.06
2022-08-08T04:06:30.358Z,16.01
2022-08-08T04:07:29.199Z,15.98
2022-08-08T04:08:33.463Z,15.85
2022-08-08T04:09:58.853Z,15.75
2022-08-08T04:10:32.269Z,15.83
2022-08-08T04:11:29.157Z,15.79
2022-08-08T04:12:29.392Z,15.90
2022-08-08T04:13:29.140Z,15.82
2022-08-08T04:14:35.592Z,15.85
2022-08-08T04:15:30.517Z,15.91
2022-08-08T04:16:38.407Z,15.94
2022-08-08T04:17:58.361Z,15.82
2022-08-08T04:18:30.107Z,15.79
2022-08-08T04:19:29.078Z,15.77
2022-08-08T04:20:29.106Z,15.69
2022-08-08T04:21:29.055Z,15.72
2022-08-08T04:22:30.162Z,15.68
2022-08-08T04:24:00.413Z,15.70
2022-08-08T04:24:31.113Z,15.77
2022-08-08T04:25:30.076Z,16.01
2022-08-08T04:26:35.280Z,16.15
2022-08-08T04:28:02.936Z,16.06
2022-08-08T04:28:36.384Z,16.28
2022-08-08T04:29:36.674Z,16.34
2022-08-08T04:30:29.985Z,16.42
2022-08-08T04:31:56.710Z,16.38
2022-08-08T04:32:30.696Z,16.35
2022-08-08T04:33:28.932Z,16.43
2022-08-08T04:34:32.352Z,16.33
2022-08-08T04:35:33.395Z,16.20
2022-08-08T04:36:28.900Z,16.37
2022-08-08T04:37:32.192Z,16.28
2022-08-08T04:38:28.881Z,16.25
2022-08-08T04:40:04.157Z,16.08
2022-08-08T04:40:28.918Z,16.19
2022-08-08T04:41:35.766Z,16.17
2022-08-08T04:42:29.084Z,16.28
2022-08-08T04:43:31.375Z,16.19
2022-08-08T04:44:28.818Z,16.08
2022-08-08T04:45:28.805Z,16.00
2022-08-08T04:46:31.006Z,16.19
2022-08-08T04:47:28.787Z,16.09
2022-08-08T04:48:28.778Z,16.19
2022-08-08T04:50:00.733Z,16.28
2022-08-08T04:50:37.634Z,16.24
2022-08-08T04:51:48.534Z,16.19
2022-08-08T04:52:33.765Z,16.13
2022-08-08T04:54:37.056Z,16.20
2022-08-08T04:54:40.043Z,16.17
2022-08-08T04:55:47.762Z,16.19
2022-08-08T04:56:29.719Z,16.20
2022-08-08T04:57:28.849Z,16.28
2022-08-08T04:58:28.675Z,16.16
2022-08-08T04:59:29.902Z,16.20
2022-08-08T05:00:28.654Z,16.25
2022-08-08T05:01:35.306Z,16.27
2022-08-08T05:02:31.133Z,16.27
2022-08-08T05:04:10.100Z,16.28
2022-08-08T05:04:29.637Z,16.34
2022-08-08T05:05:45.213Z,16.24
2022-08-08T05:06:29.627Z,16.15
2022-08-08T05:07:37.923Z,16.31
2022-08-08T05:08:29.596Z,16.33
2022-08-08T05:09:29.158Z,16.34
2022-08-08T05:10:28.555Z,16.31
2022-08-08T05:11:28.548Z,16.53
2022-08-08T05:12:28.954Z,16.34
2022-08-08T05:13:28.526Z,16.40
2022-08-08T05:14:29.338Z,16.40
2022-08-08T05:15:31.406Z,16.43
2022-08-08T05:16:54.507Z,16.64
2022-08-08T05:17:28.486Z,16.49
2022-08-08T05:18:29.498Z,16.45
2022-08-08T05:20:10.794Z,16.49
2022-08-08T05:20:29.484Z,16.55
2022-08-08T05:21:28.447Z,16.46
2022-08-08T05:22:28.668Z,16.49
2022-08-08T05:23:29.889Z,16.52
2022-08-08T05:24:28.416Z,16.48
2022-08-08T05:25:41.474Z,16.46
2022-08-08T05:26:28.399Z,16.43
2022-08-08T05:27:33.009Z,16.38
2022-08-08T05:28:56.089Z,16.50
2022-08-08T05:29:29.167Z,16.50
2022-08-08T05:30:28.783Z,16.55
2022-08-08T05:32:03.732Z,16.49
2022-08-08T05:32:33.059Z,16.60
2022-08-08T05:33:39.216Z,16.61
2022-08-08T05:34:29.340Z,16.61
2022-08-08T05:35:28.311Z,16.64
2022-08-08T05:36:28.402Z,16.75
2022-08-08T05:37:49.220Z,16.88
2022-08-08T05:38:32.003Z,16.82
2022-08-08T05:39:28.646Z,16.99
2022-08-08T05:40:29.280Z,16.82
2022-08-08T05:41:28.287Z,16.96
2022-08-08T05:42:28.236Z,17.06
2022-08-08T05:43:39.366Z,17.05
2022-08-08T05:44:31.276Z,17.04
2022-08-08T05:45:41.510Z,17.09
2022-08-08T05:46:29.222Z,16.96
2022-08-08T05:47:41.636Z,17.30
2022-08-08T05:48:31.269Z,17.26
2022-08-08T05:49:28.169Z,17.30
2022-08-08T05:50:28.156Z,17.26
2022-08-08T05:51:28.147Z,17.38
2022-08-08T05:52:35.508Z,17.30
2022-08-08T05:53:56.141Z,17.39
2022-08-08T05:54:49.768Z,17.24
2022-08-08T05:55:28.104Z,17.24
2022-08-08T05:56:28.096Z,17.42
2022-08-08T05:58:04.366Z,17.31
2022-08-08T05:58:33.439Z,17.37
2022-08-08T06:00:00.732Z,17.37
2022-08-08T06:00:29.089Z,17.54
2022-08-08T06:01:51.229Z,17.60
2022-08-08T06:02:28.030Z,17.64
2022-08-08T06:03:29.520Z,17.66
2022-08-08T06:04:28.116Z,17.78
2022-08-08T06:05:34.777Z,17.82
2022-08-08T06:06:32.632Z,17.87
2022-08-08T06:07:29.201Z,17.90
2022-08-08T06:08:33.303Z,18.08
2022-08-08T06:10:00.490Z,18.18
2022-08-08T06:10:28.035Z,18.12
2022-08-08T06:11:28.177Z,18.04
2022-08-08T06:12:30.505Z,18.09
2022-08-08T06:13:27.917Z,18.24
2022-08-08T06:14:28.933Z,18.34
2022-08-08T06:15:50.034Z,18.24
2022-08-08T06:16:30.596Z,18.40
2022-08-08T06:17:50.547Z,18.40
2022-08-08T06:18:30.494Z,18.37
2022-08-08T06:19:27.854Z,18.46
2022-08-08T06:20:27.860Z,18.40
2022-08-08T06:21:48.530Z,18.35
2022-08-08T06:22:32.500Z,18.37
2022-08-08T06:23:48.915Z,18.50
2022-08-08T06:24:31.163Z,18.49
2022-08-08T06:25:33.343Z,18.35
2022-08-08T06:26:38.722Z,18.53
2022-08-08T06:27:29.050Z,18.56
2022-08-08T06:28:29.373Z,18.55
2022-08-08T06:29:48.916Z,18.48
2022-08-08T06:30:29.170Z,18.70
2022-08-08T06:31:32.409Z,18.71
2022-08-08T06:32:28.746Z,18.60
2022-08-08T06:33:37.002Z,18.59
2022-08-08T06:34:28.735Z,18.71
2022-08-08T06:36:08.855Z,18.67
2022-08-08T06:36:28.705Z,18.77
2022-08-08T06:37:27.675Z,18.74
2022-08-08T06:38:29.042Z,18.67
2022-08-08T06:39:27.700Z,18.59
2022-08-08T06:40:27.649Z,18.53
2022-08-08T06:41:29.679Z,18.56
2022-08-08T06:42:28.309Z,18.53
2022-08-08T06:43:30.642Z,18.49
2022-08-08T06:44:30.186Z,18.38
2022-08-08T06:45:27.593Z,18.43
2022-08-08T06:46:29.882Z,18.35
2022-08-08T06:47:33.355Z,18.55
2022-08-08T06:48:27.565Z,18.53
2022-08-08T06:49:55.473Z,18.66
2022-08-08T06:50:31.424Z,18.89
2022-08-08T06:51:46.758Z,18.89
2022-08-08T06:52:28.551Z,18.98
2022-08-08T06:53:39.125Z,19.14
2022-08-08T06:54:28.525Z,19.22
2022-08-08T06:55:27.558Z,19.26
2022-08-08T06:56:27.486Z,19.33
2022-08-08T06:57:29.354Z,19.35
2022-08-08T06:58:30.978Z,19.43
2022-08-08T06:59:27.450Z,19.40
2022-08-08T07:00:29.896Z,19.33
2022-08-08T07:02:16.818Z,19.53
2022-08-08T07:02:29.869Z,19.36
2022-08-08T07:04:35.818Z,19.43
2022-08-08T07:04:37.534Z,19.53
2022-08-08T07:05:29.885Z,19.66
2022-08-08T07:06:28.402Z,19.70
2022-08-08T07:07:27.792Z,20.00
2022-08-08T07:08:27.362Z,20.10
2022-08-08T07:09:45.466Z,19.99
2022-08-08T07:10:28.551Z,20.34
2022-08-08T07:11:27.341Z,20.59
2022-08-08T07:12:30.646Z,20.71
2022-08-08T07:13:27.309Z,20.80
2022-08-08T07:14:27.302Z,20.77
2022-08-08T07:16:01.198Z,20.95
2022-08-08T07:16:29.060Z,20.95
2022-08-08T07:17:40.070Z,20.95
2022-08-08T07:18:36.789Z,21.14
2022-08-08T07:19:28.267Z,20.95
2022-08-08T07:20:28.216Z,20.77
2022-08-08T07:21:27.226Z,20.70
2022-08-08T07:22:27.221Z,20.44
2022-08-08T07:23:27.211Z,20.33
2022-08-08T07:24:27.197Z,20.14
2022-08-08T07:25:31.839Z,20.31
2022-08-08T07:26:32.928Z,20.29
2022-08-08T07:27:27.748Z,20.33
2022-08-08T07:28:31.375Z,20.39
2022-08-08T07:30:00.232Z,20.66
2022-08-08T07:30:27.143Z,20.59
2022-08-08T07:31:27.129Z,20.91
2022-08-08T07:32:27.121Z,21.05
2022-08-08T07:33:27.112Z,21.17
2022-08-08T07:34:32.084Z,21.26
2022-08-08T07:35:27.088Z,21.45
2022-08-08T07:36:27.076Z,21.24
2022-08-08T07:37:27.068Z,21.01
2022-08-08T07:38:27.058Z,20.64
2022-08-08T07:39:29.539Z,20.58
2022-08-08T07:40:29.132Z,20.54
2022-08-08T07:41:27.026Z,20.61
2022-08-08T07:42:32.975Z,20.96
2022-08-08T07:43:37.377Z,20.88
2022-08-08T07:44:40.805Z,21.02
2022-08-08T07:45:34.530Z,21.05
2022-08-08T07:46:30.450Z,21.02
2022-08-08T07:47:38.601Z,21.42
2022-08-08T07:48:29.619Z,21.40
2022-08-08T07:49:26.948Z,21.39
2022-08-08T07:50:26.937Z,21.42
2022-08-08T07:51:44.860Z,21.54
2022-08-08T07:52:27.936Z,21.47
2022-08-08T07:54:02.337Z,21.47
2022-08-08T07:54:27.916Z,21.26
2022-08-08T07:55:28.527Z,21.27
2022-08-08T07:56:36.419Z,21.13
2022-08-08T07:57:28.089Z,21.58
2022-08-08T07:58:26.857Z,21.70
2022-08-08T07:59:26.846Z,21.97
2022-08-08T08:00:27.859Z,21.92
2022-08-08T08:01:27.166Z,22.16
2022-08-08T08:02:36.098Z,22.35
2022-08-08T08:03:28.451Z,22.35
2022-08-08T08:04:26.794Z,22.57
2022-08-08T08:05:32.951Z,22.46
2022-08-08T08:06:27.800Z,22.70
2022-08-08T08:07:32.186Z,22.87
2022-08-08T08:08:27.778Z,22.88
2022-08-08T08:09:26.748Z,22.96
2022-08-08T08:10:30.202Z,23.15
2022-08-08T08:11:33.563Z,22.78
2022-08-08T08:12:35.643Z,22.81
2022-08-08T08:13:42.845Z,22.62
2022-08-08T08:14:27.719Z,22.62
2022-08-08T08:15:26.694Z,22.72
2022-08-08T08:16:26.683Z,22.77
2022-08-08T08:17:36.517Z,22.77
2022-08-08T08:18:32.399Z,22.65
2022-08-08T08:19:26.651Z,22.63
2022-08-08T08:20:30.411Z,22.66
2022-08-08T08:21:35.336Z,22.66
2022-08-08T08:22:33.865Z,22.63
2022-08-08T08:23:27.723Z,22.81
2022-08-08T08:24:30.379Z,22.84
2022-08-08T08:25:43.538Z,23.27
2022-08-08T08:26:28.514Z,23.50
2022-08-08T08:27:26.571Z,23.55
2022-08-08T08:28:26.563Z,23.77
2022-08-08T08:29:28.005Z,23.77
2022-08-08T08:30:26.606Z,23.94
2022-08-08T08:31:26.532Z,24.07
2022-08-08T08:32:31.621Z,23.72
2022-08-08T08:33:27.533Z,23.80
2022-08-08T08:34:32.615Z,23.77
2022-08-08T08:35:29.712Z,24.02
2022-08-08T08:36:27.569Z,24.21
2022-08-08T08:37:30.515Z,24.43
2022-08-08T08:38:26.466Z,24.66
2022-08-08T08:39:39.103Z,24.80
2022-08-08T08:40:27.554Z,24.97
2022-08-08T08:41:26.433Z,25.18
2022-08-08T08:42:29.271Z,24.90
2022-08-08T08:43:29.083Z,24.73
2022-08-08T08:44:30.561Z,24.63
2022-08-08T08:45:26.587Z,24.73
2022-08-08T08:46:26.388Z,24.72
2022-08-08T08:47:26.374Z,24.60
2022-08-08T08:48:26.363Z,24.58
2022-08-08T08:49:30.678Z,24.92
2022-08-08T08:50:34.028Z,25.25
2022-08-08T08:51:26.340Z,25.02
2022-08-08T08:52:28.777Z,25.32
2022-08-08T08:53:28.041Z,25.47
2022-08-08T08:54:27.328Z,24.91
2022-08-08T08:55:26.298Z,24.62
2022-08-08T08:56:26.289Z,24.73
2022-08-08T08:57:26.366Z,24.76
2022-08-08T08:58:26.267Z,24.99
2022-08-08T08:59:58.723Z,24.77
2022-08-08T09:00:35.497Z,24.58
2022-08-08T09:01:27.313Z,24.45
2022-08-08T09:02:26.231Z,24.25
2022-08-08T09:03:45.993Z,24.39
2022-08-08T09:04:31.367Z,24.39
2022-08-08T09:05:29.116Z,24.69
2022-08-08T09:06:33.495Z,25.12
2022-08-08T09:07:39.419Z,25.59
2022-08-08T09:08:27.196Z,26.00
2022-08-08T09:09:39.929Z,26.19
2022-08-08T09:10:28.187Z,26.06
2022-08-08T09:11:26.153Z,25.92
2022-08-08T09:12:27.354Z,25.90
2022-08-08T09:13:28.205Z,26.33
2022-08-08T09:14:26.157Z,26.67
2022-08-08T09:15:40.737Z,26.70
2022-08-08T09:16:29.003Z,26.84
2022-08-08T09:17:40.976Z,26.44
2022-08-08T09:18:27.094Z,26.33
2022-08-08T09:21:56.802Z,25.88
2022-08-08T09:21:57.302Z,26.61
2022-08-08T09:21:57.640Z,26.10
2022-08-08T09:22:26.981Z,26.93
2022-08-08T09:23:26.211Z,26.54
2022-08-08T09:24:27.055Z,26.95
2022-08-08T09:25:36.116Z,27.61
2022-08-08T09:26:27.023Z,27.64
2022-08-08T09:27:56.236Z,28.06
2022-08-08T09:28:37.359Z,28.60
2022-08-08T09:29:25.973Z,28.95
2022-08-08T09:30:25.971Z,28.97
2022-08-08T09:31:25.956Z,29.16
2022-08-08T09:32:31.792Z,29.27
2022-08-08T09:34:06.294Z,29.54
2022-08-08T09:34:31.704Z,28.82
2022-08-08T09:35:32.228Z,28.32
2022-08-08T09:36:27.074Z,28.25
2022-08-08T09:37:39.631Z,28.22
2022-08-08T09:38:27.765Z,28.49
2022-08-08T09:39:25.941Z,29.28
2022-08-08T09:40:42.717Z,29.81
2022-08-08T09:41:26.883Z,30.34
2022-08-08T09:42:26.124Z,30.65
2022-08-08T09:44:04.995Z,30.96
2022-08-08T09:44:29.557Z,31.05
2022-08-08T09:46:01.680Z,30.87
2022-08-08T09:46:30.602Z,30.79
2022-08-08T09:48:02.969Z,30.81
2022-08-08T09:48:35.345Z,30.36
2022-08-08T09:49:49.569Z,30.09
2022-08-08T09:50:26.803Z,30.18
2022-08-08T09:51:25.881Z,29.20
2022-08-08T09:52:58.257Z,27.96
2022-08-08T09:53:52.878Z,28.04
2022-08-08T09:54:37.571Z,28.54
2022-08-08T09:55:51.651Z,28.88
2022-08-08T09:56:27.786Z,28.90
2022-08-08T09:57:25.716Z,29.22
2022-08-08T09:58:33.293Z,28.81
2022-08-08T10:00:01.220Z,29.45
2022-08-08T10:00:50.072Z,30.21
2022-08-08T10:02:00.200Z,30.80
2022-08-08T10:02:28.898Z,31.22
2022-08-08T10:03:25.664Z,31.67
2022-08-08T10:04:41.363Z,30.98
2022-08-08T10:05:26.758Z,30.98
2022-08-08T10:06:29.295Z,31.63
2022-08-08T10:07:25.905Z,31.95
2022-08-08T10:08:25.619Z,32.08
2022-08-08T10:09:25.612Z,31.96
2022-08-08T10:10:31.457Z,32.27
2022-08-08T10:12:27.325Z,32.65
2022-08-08T10:12:37.978Z,33.05
2022-08-08T10:13:35.871Z,33.23
2022-08-08T10:14:28.173Z,33.58
2022-08-08T10:15:25.581Z,34.05
2022-08-08T10:16:25.546Z,33.64
2022-08-08T10:17:56.670Z,33.67
2022-08-08T10:18:26.134Z,33.49
2022-08-08T10:19:25.519Z,33.53
2022-08-08T10:20:27.945Z,33.80
2022-08-08T10:21:32.731Z,33.99
2022-08-08T10:22:26.517Z,34.15
2022-08-08T10:23:41.921Z,34.37
2022-08-08T10:24:29.709Z,34.48
2022-08-08T10:25:25.469Z,32.48
2022-08-08T10:26:30.868Z,31.67
2022-08-08T10:27:25.453Z,32.05
2022-08-08T10:28:25.793Z,32.44
2022-08-08T10:29:31.125Z,32.82
2022-08-08T10:30:59.989Z,33.28
2022-08-08T10:31:46.630Z,33.62
2022-08-08T10:32:26.478Z,33.95
2022-08-08T10:33:38.328Z,33.80
2022-08-08T10:34:27.487Z,34.03
2022-08-08T10:36:08.342Z,34.17
2022-08-08T10:36:25.373Z,34.47
2022-08-08T10:37:25.369Z,34.29
2022-08-08T10:38:25.357Z,32.89
2022-08-08T10:39:31.846Z,31.78
2022-08-08T10:40:26.446Z,31.68
2022-08-08T10:41:25.327Z,31.88
2022-08-08T10:42:27.107Z,32.57
2022-08-08T10:43:25.320Z,33.02
2022-08-08T10:44:25.305Z,32.64
2022-08-08T10:45:25.294Z,31.95
2022-08-08T10:46:29.362Z,30.96
2022-08-08T10:47:25.277Z,31.31
2022-08-08T10:48:25.269Z,31.59
2022-08-08T10:50:00.494Z,31.63
2022-08-08T10:50:26.273Z,31.53
2022-08-08T10:51:26.167Z,30.44
2022-08-08T10:52:30.010Z,31.11
2022-08-08T10:53:56.683Z,30.39
2022-08-08T10:54:27.063Z,30.39
2022-08-08T10:55:40.901Z,30.37
2022-08-08T10:56:27.921Z,30.79
2022-08-08T10:57:41.468Z,31.41
2022-08-08T10:58:26.204Z,32.07
2022-08-08T10:59:25.173Z,32.77
2022-08-08T11:00:25.437Z,33.45
2022-08-08T11:01:25.203Z,34.00
2022-08-08T11:02:25.436Z,33.20
2022-08-08T11:03:52.315Z,32.42
2022-08-08T11:04:38.565Z,31.30
2022-08-08T11:05:26.144Z,31.05
2022-08-08T11:06:25.114Z,30.64
2022-08-08T11:07:40.623Z,31.46
2022-08-08T11:08:37.972Z,31.46
2022-08-08T11:09:26.110Z,30.61
2022-08-08T11:10:29.019Z,29.61
2022-08-08T11:11:31.931Z,29.78
2022-08-08T11:12:27.789Z,30.07
2022-08-08T11:13:29.003Z,30.10
2022-08-08T11:14:27.775Z,30.50
2022-08-08T11:15:30.937Z,31.22
2022-08-08T11:16:32.828Z,30.95
2022-08-08T11:18:01.183Z,30.86
2022-08-08T11:18:26.031Z,31.33
2022-08-08T11:19:25.002Z,31.81
2022-08-08T11:20:27.380Z,32.77
2022-08-08T11:21:24.985Z,32.64
2022-08-08T11:22:26.919Z,30.98
2022-08-08T11:23:24.968Z,30.25
2022-08-08T11:24:25.980Z,29.81
2022-08-08T11:25:52.435Z,30.36
2022-08-08T11:26:28.131Z,31.18
2022-08-08T11:27:24.931Z,32.14
2022-08-08T11:28:25.757Z,33.09
2022-08-08T11:29:41.818Z,33.35
2022-08-08T11:30:25.922Z,33.73
2022-08-08T11:31:24.894Z,33.60
2022-08-08T11:32:29.407Z,32.61
2022-08-08T11:33:51.143Z,32.29
2022-08-08T11:34:34.357Z,32.19
2022-08-08T11:35:42.543Z,31.43
2022-08-08T11:36:29.224Z,31.03
2022-08-08T11:38:34.238Z,30.90
2022-08-08T11:38:39.129Z,31.77
2022-08-08T11:39:25.928Z,32.27
2022-08-08T11:40:26.501Z,31.74
2022-08-08T11:41:27.713Z,31.78
2022-08-08T11:42:27.163Z,32.67
2022-08-08T11:43:25.997Z,33.38
2022-08-08T11:44:29.165Z,33.75
2022-08-08T11:45:24.775Z,33.92
2022-08-08T11:46:24.767Z,34.36
2022-08-08T11:47:24.759Z,34.37
2022-08-08T11:48:27.784Z,33.89
2022-08-08T11:49:24.743Z,33.92
2022-08-08T11:50:24.732Z,33.92
2022-08-08T11:51:29.470Z,34.56
2022-08-08T11:52:27.493Z,35.45
2022-08-08T11:53:25.729Z,35.73
2022-08-08T11:54:32.087Z,35.25
2022-08-08T11:55:25.709Z,33.58
2022-08-08T11:56:24.681Z,32.98
2022-08-08T11:57:27.845Z,33.06
2022-08-08T11:58:24.666Z,33.73
2022-08-08T11:59:58.252Z,34.37
2022-08-08T12:00:25.673Z,34.29
2022-08-08T12:01:24.643Z,33.65
2022-08-08T12:02:33.431Z,33.75
2022-08-08T12:03:30.570Z,34.52
2022-08-08T12:04:24.619Z,32.80
2022-08-08T12:05:24.774Z,32.07
2022-08-08T12:06:24.602Z,31.74
2022-08-08T12:07:24.594Z,32.36
2022-08-08T12:08:24.583Z,32.69
2022-08-08T12:09:24.576Z,33.14
2022-08-08T12:10:24.582Z,33.32
2022-08-08T12:11:28.656Z,33.51
2022-08-08T12:12:28.893Z,33.27
2022-08-08T12:13:38.394Z,33.91
2022-08-08T12:14:28.950Z,34.58
2022-08-08T12:15:24.529Z,35.60
2022-08-08T12:16:31.698Z,36.33
2022-08-08T12:17:25.533Z,36.40
2022-08-08T12:18:25.241Z,36.01
2022-08-08T12:19:37.836Z,35.87
2022-08-08T12:20:25.517Z,36.08
2022-08-08T12:21:25.685Z,36.26
2022-08-08T12:22:24.474Z,36.24
2022-08-08T12:23:30.168Z,36.54
2022-08-08T12:24:27.993Z,36.67
2022-08-08T12:25:24.647Z,36.43
2022-08-08T12:26:28.228Z,35.98
2022-08-08T12:27:27.071Z,36.52
2022-08-08T12:28:25.447Z,36.70
2022-08-08T12:29:25.812Z,36.74
2022-08-08T12:30:25.462Z,37.12
2022-08-08T12:31:24.405Z,36.96
2022-08-08T12:32:24.400Z,37.17
2022-08-08T12:33:24.385Z,37.23
2022-08-08T12:34:24.376Z,37.24
2022-08-08T12:35:25.389Z,37.26
2022-08-08T12:36:24.359Z,35.79
2022-08-08T12:37:39.915Z,35.69
2022-08-08T12:38:30.536Z,35.80
2022-08-08T12:39:25.360Z,36.35
2022-08-08T12:40:25.535Z,36.72
2022-08-08T12:41:35.400Z,36.79
2022-08-08T12:42:27.465Z,37.12
2022-08-08T12:43:24.307Z,37.14
2022-08-08T12:45:53.880Z,37.24
2022-08-08T12:45:58.837Z,37.05
2022-08-08T12:46:26.640Z,37.08
2022-08-08T12:47:43.342Z,37.05
2022-08-08T12:48:36.585Z,37.11
2022-08-08T12:49:43.746Z,37.08
2022-08-08T12:50:25.749Z,37.19
2022-08-08T12:51:24.243Z,35.37
2022-08-08T12:52:39.467Z,35.37
2022-08-08T12:53:30.334Z,35.71
2022-08-08T12:56:52.662Z,35.71
2022-08-08T12:56:54.659Z,36.61
2022-08-08T12:57:56.652Z,37.17
2022-08-08T15:51:41.387Z,37.15
2022-08-08T15:51:44.037Z,36.97
2022-08-08T15:52:43.923Z,36.85
2022-08-08T16:15:21.626Z,36.89
2022-08-08T16:15:24.282Z,34.95
2022-08-08T16:16:24.278Z,34.64
2022-08-08T16:24:43.202Z,34.66
2022-08-08T16:24:47.937Z,35.90
2022-08-08T16:25:54.669Z,36.01
2022-08-08T16:30:36.465Z,35.71
2022-08-08T16:30:36.955Z,35.35
2022-08-08T16:31:35.277Z,35.65
2022-08-08T16:32:35.685Z,35.29
2022-08-08T16:33:39.140Z,34.27
2022-08-08T16:35:12.008Z,34.56
2022-08-08T16:35:35.243Z,34.74
2022-08-08T16:36:35.231Z,34.58
2022-08-08T16:37:35.224Z,33.77
2022-08-08T16:38:35.221Z,34.03
2022-08-08T16:40:00.343Z,34.47
2022-08-08T16:40:36.279Z,33.88
2022-08-08T16:41:35.190Z,34.20
2022-08-08T16:42:38.789Z,34.58
2022-08-08T16:43:49.150Z,35.04
2022-08-08T16:44:35.168Z,35.67
2022-08-08T16:46:39.304Z,35.89
2022-08-08T16:46:46.393Z,35.92
2022-08-08T16:47:42.046Z,36.26
2022-08-08T16:48:36.879Z,36.23
2022-08-08T16:49:36.264Z,36.36
2022-08-08T16:50:35.119Z,36.60
2022-08-08T16:55:01.173Z,37.18
2022-08-08T16:55:02.287Z,37.37
2022-08-08T16:55:03.231Z,37.39
2022-08-08T16:55:18.136Z,35.68
2022-08-08T16:55:55.436Z,35.75
2022-08-08T16:56:36.087Z,35.98
2022-08-08T16:58:15.683Z,36.26
2022-08-08T16:58:36.066Z,36.06
2022-08-08T16:59:51.871Z,35.80
2022-08-08T17:00:36.103Z,36.13
2022-08-08T17:01:35.666Z,35.90
2022-08-08T17:02:39.248Z,35.68
2022-08-08T17:03:59.036Z,35.61
2022-08-08T17:04:36.020Z,35.30
2022-08-08T17:05:45.150Z,34.96
2022-08-08T17:06:39.808Z,34.88
2022-08-08T17:07:37.454Z,34.89
2022-08-08T17:08:34.967Z,34.78
2022-08-08T17:09:45.524Z,34.77
2022-08-08T17:10:34.945Z,34.36
2022-08-08T17:11:39.251Z,34.61
2022-08-08T17:12:36.925Z,34.86
2022-08-08T17:13:49.707Z,35.12
2022-08-08T17:14:34.912Z,35.49
2022-08-08T17:15:47.643Z,35.39
2022-08-08T17:16:35.916Z,34.47
2022-08-08T17:17:41.721Z,34.00
2022-08-08T17:18:35.903Z,33.11
2022-08-08T17:19:41.039Z,33.40
2022-08-08T17:20:39.585Z,33.42
2022-08-08T17:21:34.852Z,33.69
2022-08-08T17:22:42.010Z,34.07
2022-08-08T17:24:01.480Z,34.14
2022-08-08T17:24:34.827Z,34.07
2022-08-08T17:25:52.428Z,33.84
2022-08-08T17:26:35.830Z,34.02
2022-08-08T17:27:45.969Z,34.22
2022-08-08T17:28:35.811Z,34.32
2022-08-08T17:29:36.595Z,34.69
2022-08-08T17:30:35.797Z,34.82
2022-08-08T17:31:44.594Z,34.58
2022-08-08T17:34:18.547Z,34.30
2022-08-08T17:34:48.705Z,34.21
2022-08-08T17:35:04.398Z,34.05
2022-08-08T17:35:53.620Z,33.55
2022-08-08T17:36:35.743Z,33.57
2022-08-08T17:37:34.714Z,33.61
2022-08-08T17:38:34.705Z,33.42
2022-08-08T17:40:03.244Z,33.28
2022-08-08T17:40:35.753Z,33.04
2022-08-08T17:41:38.919Z,33.35
2022-08-08T17:42:35.687Z,33.57
2022-08-08T17:44:00.110Z,34.11
2022-08-08T17:44:35.670Z,33.99
2022-08-08T17:45:36.403Z,33.11
2022-08-08T17:46:34.630Z,33.17
2022-08-08T17:47:40.480Z,33.24
2022-08-08T17:48:35.634Z,33.42
2022-08-08T17:49:42.509Z,33.14
2022-08-08T17:50:34.597Z,33.01
2022-08-08T17:51:34.584Z,32.87
2022-08-08T17:52:35.248Z,32.79
2022-08-08T17:53:43.142Z,32.91
2022-08-08T17:54:35.586Z,32.51
2022-08-08T17:56:03.500Z,31.82
2022-08-08T17:56:34.542Z,31.62
2022-08-08T17:57:35.598Z,31.63
2022-08-08T17:58:34.522Z,31.60
2022-08-08T17:59:36.470Z,31.63
2022-08-08T18:00:39.031Z,31.85
2022-08-08T18:01:43.797Z,31.78
2022-08-08T18:02:35.993Z,31.60
2022-08-08T18:03:34.503Z,30.62
2022-08-08T18:04:35.933Z,30.62
2022-08-08T18:05:48.888Z,30.46
2022-08-08T18:06:35.467Z,30.69
2022-08-08T18:08:04.262Z,30.92
2022-08-08T18:08:41.308Z,31.15
2022-08-08T18:09:37.948Z,31.51
2022-08-08T18:10:34.413Z,31.66
2022-08-08T18:11:36.556Z,31.89
2022-08-08T18:12:34.389Z,31.78
2022-08-08T18:13:34.893Z,31.05
2022-08-08T18:14:35.398Z,30.49
2022-08-08T18:15:34.365Z,30.10
2022-08-08T18:16:34.354Z,29.65
2022-08-08T18:18:08.951Z,29.12
2022-08-08T18:18:37.409Z,28.75
2022-08-08T18:19:46.036Z,28.86
2022-08-08T18:20:42.823Z,28.67
2022-08-08T18:22:00.910Z,28.57
2022-08-08T18:22:50.561Z,28.38
2022-08-08T18:23:35.307Z,28.18
2022-08-08T18:24:34.279Z,28.06
2022-08-08T18:25:37.367Z,27.92
2022-08-08T18:26:34.262Z,27.86
2022-08-08T18:27:34.247Z,27.81
2022-08-08T18:28:54.145Z,27.86
2022-08-08T18:29:34.636Z,27.71
2022-08-08T18:30:34.222Z,27.69
2022-08-08T18:31:34.212Z,27.57
2022-08-08T18:32:34.203Z,27.45
2022-08-08T18:34:10.377Z,27.24
2022-08-08T18:34:34.194Z,27.23
2022-08-08T18:35:41.729Z,27.09
2022-08-08T18:36:35.906Z,26.96
2022-08-08T18:37:34.991Z,26.76
2022-08-08T18:38:35.169Z,26.71
2022-08-08T18:39:34.195Z,26.51
2022-08-08T18:40:35.093Z,26.56
2022-08-08T18:41:45.594Z,26.40
2022-08-08T18:42:35.127Z,26.36
2022-08-08T18:43:43.119Z,26.27
2022-08-08T18:44:36.114Z,26.30
2022-08-08T18:46:53.434Z,26.07
2022-08-08T18:46:56.302Z,25.97
2022-08-08T18:47:35.078Z,25.77
2022-08-08T18:48:34.049Z,25.77
2022-08-08T18:49:54.740Z,25.70
2022-08-08T18:50:39.702Z,25.70
2022-08-08T18:51:52.804Z,25.55
2022-08-08T18:52:36.812Z,25.45
2022-08-08T18:54:00.302Z,25.37
2022-08-08T18:54:35.014Z,25.40
2022-08-08T18:55:33.973Z,25.28
2022-08-08T18:56:33.967Z,25.09
2022-08-08T18:57:36.849Z,25.03
2022-08-08T18:58:33.945Z,25.10
2022-08-08T18:59:38.299Z,25.17
2022-08-08T19:00:34.947Z,25.00
2022-08-08T19:02:29.000Z,25.09
2022-08-08T19:02:35.026Z,24.95
2022-08-08T19:04:01.450Z,25.00
2022-08-08T19:04:35.627Z,24.84
2022-08-08T19:05:37.331Z,24.97
2022-08-08T19:06:33.870Z,24.80
2022-08-08T19:07:37.540Z,24.72
2022-08-08T19:08:33.850Z,24.72
2022-08-08T19:09:49.568Z,24.63
2022-08-08T19:10:35.188Z,24.75
2022-08-08T19:11:33.821Z,24.80
2022-08-08T19:12:35.098Z,24.62
2022-08-08T19:13:53.503Z,24.45
2022-08-08T19:14:34.811Z,24.62
2022-08-08T19:15:34.523Z,24.63
2022-08-08T19:16:33.768Z,24.52
2022-08-08T19:18:51.507Z,24.48
2022-08-08T19:21:49.627Z,24.25
2022-08-08T19:22:34.728Z,24.36
2022-08-08T19:23:35.547Z,24.39
2022-08-08T19:31:35.646Z,23.97
2022-08-08T19:32:33.610Z,23.82
2022-08-08T19:33:52.127Z,24.02
2022-08-08T19:34:38.817Z,23.77
2022-08-08T19:35:45.570Z,23.77
2022-08-08T19:36:34.588Z,23.75
2022-08-08T19:37:43.257Z,23.83
2022-08-08T19:39:35.735Z,23.77
2022-08-08T20:02:34.366Z,23.40
